createdAt,value
2022-11-01T00:01:50.356Z,15.41
2022-11-01T00:04:17.329Z,15.34
2022-11-01T00:06:43.847Z,15.40
2022-11-01T00:09:10.358Z,15.40
2022-11-01T00:11:36.937Z,15.53
2022-11-01T00:14:03.597Z,15.47
2022-11-01T00:16:30.366Z,15.54
2022-11-01T00:18:57.238Z,15.55
2022-11-01T00:21:24.085Z,15.56
2022-11-01T00:23:50.538Z,15.22
2022-11-01T00:26:22.377Z,15.66
2022-11-01T00:28:49.546Z,15.33
2022-11-01T00:31:17.592Z,15.40
2022-11-01T00:33:44.389Z,15.59
2022-11-01T00:36:11.277Z,15.36
2022-11-01T00:38:37.783Z,15.39
2022-11-01T00:41:04.988Z,15.61
2022-11-01T00:43:32.845Z,15.73
2022-11-01T00:45:59.499Z,15.63
2022-11-01T00:48:26.287Z,15.71
2022-11-01T00:50:53.079Z,15.73
2022-11-01T00:53:19.607Z,15.70
2022-11-01T00:55:46.113Z,15.71
2022-11-01T00:58:12.675Z,15.91
2022-11-01T01:00:39.385Z,15.89
2022-11-01T01:03:06.499Z,15.92
2022-11-01T01:05:34.139Z,15.52
2022-11-01T01:08:00.671Z,15.94
2022-11-01T01:10:27.422Z,15.98
2022-11-01T01:12:53.831Z,16.02
2022-11-01T01:15:20.378Z,16.04
2022-11-01T01:17:46.776Z,16.07
2022-11-01T01:20:13.260Z,15.94
2022-11-01T01:22:39.889Z,15.43
2022-11-01T01:25:06.434Z,15.68
2022-11-01T01:27:32.841Z,15.64
2022-11-01T01:29:59.219Z,15.85
2022-11-01T01:32:25.609Z,15.53
2022-11-01T01:34:51.974Z,16.01
2022-11-01T01:37:18.395Z,15.71
2022-11-01T01:39:44.862Z,15.91
2022-11-01T01:42:19.994Z,16.01
2022-11-01T01:45:06.310Z,16.06
2022-11-01T01:47:38.678Z,15.61
2022-11-01T01:50:17.456Z,16.07
2022-11-01T01:52:55.942Z,16.02
2022-11-01T01:55:27.039Z,15.64
2022-11-01T01:57:55.722Z,15.80
2022-11-01T02:00:22.208Z,16.28
2022-11-01T02:02:48.810Z,16.41
2022-11-01T02:05:24.717Z,16.16
2022-11-01T02:07:51.496Z,16.59
2022-11-01T02:10:18.726Z,16.44
2022-11-01T02:12:47.900Z,16.46
2022-11-01T02:15:16.250Z,16.06
2022-11-01T02:17:51.926Z,16.37
2022-11-01T02:20:21.131Z,16.07
2022-11-01T02:22:59.803Z,16.21
2022-11-01T02:26:03.634Z,16.16
2022-11-01T02:29:04.833Z,16.17
2022-11-01T02:31:56.090Z,16.08
2022-11-01T02:34:39.128Z,15.82
2022-11-01T02:37:14.548Z,16.17
2022-11-01T02:39:47.187Z,16.18
2022-11-01T02:42:20.103Z,15.85
2022-11-01T02:45:02.567Z,16.14
2022-11-01T02:47:31.791Z,15.92
2022-11-01T02:50:06.165Z,15.42
2022-11-01T02:52:38.035Z,15.63
2022-11-01T02:55:18.190Z,15.21
2022-11-01T02:57:46.416Z,15.51
2022-11-01T03:00:25.605Z,15.07
2022-11-01T03:03:12.204Z,15.27
2022-11-01T03:06:00.328Z,15.17
2022-11-01T03:08:35.943Z,15.03
2022-11-01T03:11:08.366Z,15.20
2022-11-01T03:13:43.659Z,15.12
2022-11-01T03:16:15.737Z,15.12
2022-11-01T03:19:12.601Z,15.16
2022-11-01T03:22:00.527Z,14.71
2022-11-01T03:24:29.921Z,14.81
2022-11-01T03:27:10.978Z,14.92
2022-11-01T03:29:40.460Z,14.78
2022-11-01T03:32:08.700Z,14.93
2022-11-01T03:34:37.884Z,14.73
2022-11-01T03:37:09.416Z,14.79
2022-11-01T03:39:47.306Z,14.57
2022-11-01T03:42:18.053Z,14.62
2022-11-01T03:44:48.547Z,14.62
2022-11-01T03:47:15.272Z,14.39
2022-11-01T03:49:41.701Z,14.10
2022-11-01T03:52:08.131Z,14.37
2022-11-01T03:54:34.475Z,14.14
2022-11-01T03:57:01.045Z,14.21
2022-11-01T03:59:27.604Z,14.27
2022-11-01T04:01:54.087Z,14.25
2022-11-01T04:04:20.797Z,13.91
2022-11-01T04:06:47.263Z,13.81
2022-11-01T04:09:13.616Z,14.05
2022-11-01T04:11:39.984Z,13.98
2022-11-01T04:14:06.380Z,13.90
2022-11-01T04:16:32.779Z,14.08
2022-11-01T04:18:59.163Z,13.94
2022-11-01T04:21:26.292Z,13.64
2022-11-01T04:23:52.868Z,14.04
2022-11-01T04:26:22.289Z,13.66
2022-11-01T04:28:49.524Z,13.56
2022-11-01T04:31:16.036Z,13.71
2022-11-01T04:33:42.405Z,13.53
2022-11-01T04:36:09.158Z,13.66
2022-11-01T04:38:35.538Z,13.76
2022-11-01T04:41:01.901Z,13.66
2022-11-01T04:43:28.269Z,13.20
2022-11-01T04:45:55.691Z,13.41
2022-11-01T04:48:22.527Z,13.36
2022-11-01T04:50:49.216Z,13.11
2022-11-01T04:53:16.017Z,13.57
2022-11-01T04:55:42.394Z,13.50
2022-11-01T04:58:08.846Z,13.11
2022-11-01T05:00:35.283Z,13.26
2022-11-01T05:03:03.861Z,13.50
2022-11-01T05:05:31.164Z,13.30
2022-11-01T05:08:05.413Z,13.41
2022-11-01T05:10:32.972Z,13.11
2022-11-01T05:13:00.429Z,13.26
2022-11-01T05:15:27.307Z,13.16
2022-11-01T05:17:53.879Z,13.34
2022-11-01T05:20:20.318Z,13.26
2022-11-01T05:22:46.714Z,13.20
2022-11-01T05:25:13.073Z,13.19
2022-11-01T05:27:39.459Z,13.16
2022-11-01T05:30:06.887Z,12.96
2022-11-01T05:32:33.688Z,12.80
2022-11-01T05:35:00.069Z,12.74
2022-11-01T05:37:28.254Z,12.84
2022-11-01T05:39:54.862Z,12.63
2022-11-01T05:42:21.256Z,12.87
2022-11-01T05:44:47.677Z,12.82
2022-11-01T05:47:17.448Z,12.75
2022-11-01T05:49:44.186Z,12.75
2022-11-01T05:52:10.596Z,12.69
2022-11-01T05:54:36.997Z,12.35
2022-11-01T05:57:05.577Z,12.34
2022-11-01T05:59:31.962Z,12.74
2022-11-01T06:01:58.425Z,12.73
2022-11-01T06:04:24.895Z,12.61
2022-11-01T06:06:51.310Z,12.56
2022-11-01T06:09:17.649Z,12.21
2022-11-01T06:11:44.075Z,12.54
2022-11-01T06:14:10.724Z,12.58
2022-11-01T06:16:37.248Z,12.32
2022-11-01T06:19:03.650Z,12.59
2022-11-01T06:21:30.470Z,12.15
2022-11-01T06:23:56.988Z,12.48
2022-11-01T06:26:23.353Z,12.60
2022-11-01T06:28:49.769Z,12.37
2022-11-01T06:31:16.184Z,12.44
2022-11-01T06:33:42.626Z,12.41
2022-11-01T06:36:09.160Z,12.34
2022-11-01T06:38:35.810Z,12.39
2022-11-01T06:41:02.159Z,12.37
2022-11-01T06:43:28.584Z,12.05
2022-11-01T06:45:55.025Z,11.89
2022-11-01T06:48:21.393Z,11.90
2022-11-01T06:50:47.796Z,12.25
2022-11-01T06:53:14.312Z,12.22
2022-11-01T06:55:40.701Z,12.06
2022-11-01T06:58:07.187Z,12.26
2022-11-01T07:00:33.593Z,12.19
2022-11-01T07:03:04.431Z,12.19
2022-11-01T07:05:36.075Z,11.77
2022-11-01T07:08:08.629Z,11.73
2022-11-01T07:10:37.276Z,11.90
2022-11-01T07:13:05.380Z,12.14
2022-11-01T07:15:32.303Z,12.11
2022-11-01T07:18:00.803Z,12.13
2022-11-01T07:20:29.205Z,12.21
2022-11-01T07:23:04.615Z,12.18
2022-11-01T07:25:32.647Z,12.12
2022-11-01T07:27:59.599Z,11.86
2022-11-01T07:30:27.267Z,12.15
2022-11-01T07:32:58.417Z,11.84
2022-11-01T07:35:25.902Z,11.82
2022-11-01T07:37:52.868Z,12.14
2022-11-01T07:40:20.373Z,12.08
2022-11-01T07:42:46.864Z,12.11
2022-11-01T07:45:13.708Z,11.77
2022-11-01T07:47:40.304Z,12.09
2022-11-01T07:50:07.198Z,11.71
2022-11-01T07:52:33.924Z,11.84
2022-11-01T07:55:00.431Z,12.09
2022-11-01T07:57:26.926Z,11.92
2022-11-01T07:59:53.366Z,12.27
2022-11-01T08:02:19.860Z,11.87
2022-11-01T08:04:46.362Z,12.19
2022-11-01T08:07:12.773Z,12.25
2022-11-01T08:09:39.217Z,12.29
2022-11-01T08:12:05.957Z,12.30
2022-11-01T08:14:32.341Z,12.37
2022-11-01T08:16:58.711Z,12.30
2022-11-01T08:19:25.135Z,12.08
2022-11-01T08:21:51.496Z,12.44
2022-11-01T08:24:18.465Z,12.37
2022-11-01T08:26:45.615Z,12.06
2022-11-01T08:29:12.052Z,12.07
2022-11-01T08:31:41.857Z,12.06
2022-11-01T08:34:10.880Z,12.36
2022-11-01T08:36:39.490Z,12.09
2022-11-01T08:39:05.922Z,12.48
2022-11-01T08:41:36.607Z,12.52
2022-11-01T08:44:03.951Z,12.41
2022-11-01T08:46:30.423Z,12.52
2022-11-01T08:48:56.831Z,12.55
2022-11-01T08:51:23.411Z,12.59
2022-11-01T08:53:49.823Z,12.61
2022-11-01T08:56:16.271Z,12.61
2022-11-01T08:58:42.668Z,12.20
2022-11-01T09:01:11.737Z,12.63
2022-11-01T09:03:38.204Z,12.36
2022-11-01T09:06:04.855Z,12.73
2022-11-01T09:08:31.280Z,12.75
2022-11-01T09:11:00.879Z,12.52
2022-11-01T09:13:27.551Z,12.86
2022-11-01T09:15:55.351Z,12.93
2022-11-01T09:18:23.725Z,13.03
2022-11-01T09:20:54.801Z,13.38
2022-11-01T09:23:21.308Z,13.57
2022-11-01T09:25:48.075Z,13.93
2022-11-01T09:28:15.045Z,14.23
2022-11-01T09:30:49.898Z,13.75
2022-11-01T09:33:21.576Z,14.00
2022-11-01T09:35:53.080Z,14.25
2022-11-01T09:38:21.751Z,14.92
2022-11-01T09:40:57.060Z,14.48
2022-11-01T09:43:26.512Z,14.47
2022-11-01T09:45:54.476Z,14.92
2022-11-01T09:48:21.137Z,14.24
2022-11-01T09:50:47.631Z,14.10
2022-11-01T09:53:18.613Z,14.03
2022-11-01T09:55:54.975Z,13.80
2022-11-01T09:58:38.218Z,13.81
2022-11-01T10:01:25.762Z,14.02
2022-11-01T10:03:58.054Z,14.12
2022-11-01T10:06:39.514Z,14.17
2022-11-01T10:09:55.461Z,14.23
2022-11-01T10:12:41.191Z,13.91
2022-11-01T10:15:25.327Z,13.99
2022-11-01T10:17:54.322Z,14.19
2022-11-01T10:20:28.543Z,14.06
2022-11-01T10:22:55.674Z,14.12
2022-11-01T10:25:24.702Z,14.35
2022-11-01T10:27:53.927Z,13.90
2022-11-01T10:30:20.653Z,14.01
2022-11-01T10:32:53.539Z,14.07
2022-11-01T10:35:57.977Z,14.14
2022-11-01T10:39:04.554Z,14.36
2022-11-01T10:41:48.567Z,14.40
2022-11-01T10:44:32.832Z,14.51
2022-11-01T10:47:03.178Z,14.44
2022-11-01T10:50:00.529Z,14.31
2022-11-01T10:52:27.001Z,14.47
2022-11-01T10:54:56.622Z,14.51
2022-11-01T10:57:35.823Z,14.64
2022-11-01T11:00:06.383Z,14.13
2022-11-01T11:02:40.246Z,14.66
2022-11-01T11:05:06.910Z,14.52
2022-11-01T11:07:33.541Z,14.78
2022-11-01T11:12:33.939Z,14.67
2022-11-01T11:15:10.799Z,14.21
2022-11-01T11:17:42.882Z,14.43
2022-11-01T11:20:09.909Z,14.83
2022-11-01T11:22:38.782Z,14.85
2022-11-01T11:25:06.488Z,14.72
2022-11-01T11:27:33.252Z,14.92
2022-11-01T11:30:09.953Z,15.26
2022-11-01T11:32:38.585Z,15.06
2022-11-01T11:35:13.968Z,15.30
2022-11-01T11:37:52.680Z,15.19
2022-11-01T11:40:23.423Z,15.01
2022-11-01T11:42:52.308Z,15.20
2022-11-01T11:45:25.869Z,15.07
2022-11-01T11:47:52.298Z,15.32
2022-11-01T11:50:27.891Z,15.29
2022-11-01T11:52:58.990Z,15.19
2022-11-01T11:55:34.479Z,15.36
2022-11-01T11:58:02.100Z,15.42
2022-11-01T12:00:29.852Z,15.39
2022-11-01T12:02:56.411Z,15.01
2022-11-01T12:05:23.080Z,15.03
2022-11-01T12:07:56.916Z,15.36
2022-11-01T12:10:36.992Z,15.60
2022-11-01T12:13:40.546Z,15.39
2022-11-01T12:16:10.277Z,15.38
2022-11-01T12:18:46.562Z,15.40
2022-11-01T12:21:40.916Z,15.27
2022-11-01T12:24:27.257Z,15.68
2022-11-01T12:26:57.202Z,15.93
2022-11-01T12:29:49.307Z,15.91
2022-11-01T12:32:21.357Z,15.70
2022-11-01T12:34:50.210Z,15.84
2022-11-01T12:37:26.260Z,15.84
2022-11-01T12:40:02.457Z,15.75
2022-11-01T12:42:49.627Z,15.97
2022-11-01T12:45:25.064Z,15.83
2022-11-01T12:47:58.832Z,15.71
2022-11-01T12:50:33.217Z,16.27
2022-11-01T12:53:11.667Z,16.22
2022-11-01T12:55:39.601Z,16.40
2022-11-01T12:58:15.889Z,16.34
2022-11-01T13:01:13.652Z,16.31
2022-11-01T13:03:52.075Z,15.86
2022-11-01T13:07:16.786Z,16.52
2022-11-01T13:09:52.507Z,16.95
2022-11-01T13:12:33.926Z,16.94
2022-11-01T13:15:28.139Z,17.32
2022-11-01T13:18:06.181Z,16.59
2022-11-01T13:20:46.091Z,16.89
2022-11-01T13:23:38.570Z,17.33
2022-11-01T13:26:10.917Z,16.99
2022-11-01T13:29:05.247Z,17.12
2022-11-01T13:31:52.157Z,16.54
2022-11-01T13:35:09.183Z,16.36
2022-11-01T13:37:45.946Z,16.09
2022-11-01T13:40:28.367Z,15.74
2022-11-01T13:42:59.216Z,15.58
2022-11-01T13:46:19.324Z,16.05
2022-11-01T13:49:08.679Z,16.37
2022-11-01T13:51:35.048Z,16.04
2022-11-01T13:54:06.065Z,16.29
2022-11-01T13:56:36.396Z,15.82
2022-11-01T13:59:14.062Z,15.68
2022-11-01T14:01:40.820Z,16.18
2022-11-01T14:04:16.547Z,16.52
2022-11-01T14:06:50.418Z,16.45
2022-11-01T14:09:29.871Z,16.18
2022-11-01T14:11:57.645Z,16.17
2022-11-01T14:14:30.093Z,16.28
2022-11-01T14:17:18.572Z,16.18
2022-11-01T14:20:09.078Z,15.89
2022-11-01T14:22:35.451Z,16.03
2022-11-01T14:25:32.132Z,15.89
2022-11-01T14:28:16.781Z,15.88
2022-11-01T14:30:45.165Z,15.62
2022-11-01T14:33:20.637Z,15.40
2022-11-01T14:35:53.012Z,15.57
2022-11-01T14:38:28.923Z,15.44
2022-11-01T14:40:59.985Z,15.25
2022-11-01T14:43:35.956Z,15.25
2022-11-01T14:46:08.402Z,15.61
2022-11-01T14:48:58.338Z,15.36
2022-11-01T14:51:45.671Z,15.30
2022-11-01T14:54:36.461Z,14.88
2022-11-01T14:57:02.980Z,14.91
2022-11-01T14:59:32.983Z,14.94
2022-11-01T15:02:05.615Z,15.30
2022-11-01T15:04:40.147Z,15.31
2022-11-01T15:07:27.732Z,15.27
2022-11-01T15:10:14.726Z,15.28
2022-11-01T15:12:52.361Z,15.29
2022-11-01T15:15:28.684Z,15.30
2022-11-01T15:18:02.118Z,15.27
2022-11-01T15:20:41.460Z,15.18
2022-11-01T15:23:17.851Z,15.22
2022-11-01T15:25:51.619Z,15.19
2022-11-01T15:28:24.558Z,15.16
2022-11-01T15:30:58.374Z,15.18
2022-11-01T15:33:26.645Z,14.84
2022-11-01T15:35:55.105Z,15.15
2022-11-01T15:38:21.574Z,15.14
2022-11-01T15:40:48.311Z,14.76
2022-11-01T15:43:20.556Z,15.05
2022-11-01T15:45:52.703Z,14.71
2022-11-01T15:48:29.398Z,15.03
2022-11-01T15:51:00.891Z,15.05
2022-11-01T15:53:31.482Z,15.06
2022-11-01T15:56:16.784Z,15.09
2022-11-01T15:58:49.938Z,14.89
2022-11-01T16:01:21.315Z,15.00
2022-11-01T16:04:10.022Z,15.03
2022-11-01T16:06:43.307Z,14.79
2022-11-01T16:09:40.086Z,15.09
2022-11-01T16:12:15.907Z,14.98
2022-11-01T16:14:42.411Z,14.88
2022-11-01T16:17:31.612Z,14.76
2022-11-01T16:19:58.083Z,14.94
2022-11-01T16:22:46.604Z,14.50
2022-11-01T16:25:17.972Z,14.85
2022-11-01T16:28:08.503Z,14.95
2022-11-01T16:30:40.622Z,14.90
2022-11-01T16:33:19.284Z,15.00
2022-11-01T16:35:47.175Z,14.62
2022-11-01T16:38:35.169Z,14.92
2022-11-01T16:41:14.144Z,14.94
2022-11-01T16:43:40.911Z,14.94
2022-11-01T16:46:07.357Z,14.90
2022-11-01T16:48:48.683Z,14.77
2022-11-01T16:51:15.198Z,14.81
2022-11-01T16:53:41.570Z,14.46
2022-11-01T16:56:35.467Z,14.75
2022-11-01T16:59:07.548Z,14.74
2022-11-01T17:01:35.792Z,14.41
2022-11-01T17:04:03.441Z,14.69
2022-11-01T17:06:32.397Z,14.72
2022-11-01T17:09:02.509Z,14.73
2022-11-01T17:11:28.885Z,14.72
2022-11-01T17:13:55.261Z,14.64
2022-11-01T17:16:25.356Z,14.73
2022-11-01T17:18:55.489Z,14.43
2022-11-01T17:21:23.080Z,14.84
2022-11-01T17:23:51.020Z,14.51
2022-11-01T17:26:17.437Z,14.49
2022-11-01T17:28:47.836Z,14.72
2022-11-01T17:31:17.841Z,14.43
2022-11-01T17:33:44.315Z,14.73
2022-11-01T17:36:19.817Z,14.76
2022-11-01T17:38:46.303Z,14.34
2022-11-01T17:41:17.835Z,14.43
2022-11-01T17:43:44.207Z,14.81
2022-11-01T17:46:18.795Z,14.77
2022-11-01T17:48:45.322Z,14.80
2022-11-01T17:51:11.784Z,14.74
2022-11-01T17:53:38.201Z,14.78
2022-11-01T17:56:05.249Z,14.72
2022-11-01T17:58:31.856Z,14.75
2022-11-01T18:00:58.387Z,14.72
2022-11-01T18:03:24.786Z,14.70
2022-11-01T18:05:55.072Z,14.69
2022-11-01T18:08:25.691Z,14.62
2022-11-01T18:11:08.601Z,14.71
2022-11-01T18:13:42.944Z,14.66
2022-11-01T18:16:27.230Z,14.62
2022-11-01T18:19:14.474Z,14.54
2022-11-01T18:22:08.903Z,14.49
2022-11-01T18:24:41.664Z,14.51
2022-11-01T18:27:12.732Z,14.36
2022-11-01T18:29:45.176Z,14.31
2022-11-01T18:32:11.640Z,14.39
2022-11-01T18:34:52.754Z,14.39
2022-11-01T18:37:28.029Z,14.38
2022-11-01T18:40:14.125Z,14.37
2022-11-01T18:42:41.500Z,14.04
2022-11-01T18:45:31.805Z,14.39
2022-11-01T18:48:07.758Z,14.29
2022-11-01T18:50:34.208Z,14.25
2022-11-01T18:53:12.508Z,14.39
2022-11-01T18:55:38.929Z,14.28
2022-11-01T18:58:23.073Z,14.24
2022-11-01T19:01:02.486Z,14.26
2022-11-01T19:03:29.541Z,13.96
2022-11-01T19:06:10.577Z,13.99
2022-11-01T19:08:36.974Z,13.86
2022-11-01T19:11:03.424Z,13.83
2022-11-01T19:13:33.151Z,13.83
2022-11-01T19:16:03.025Z,14.20
2022-11-01T19:18:29.963Z,14.19
2022-11-01T19:20:58.222Z,14.20
2022-11-01T19:23:36.399Z,14.03
2022-11-01T19:26:04.113Z,14.01
2022-11-01T19:28:34.332Z,14.14
2022-11-01T19:31:20.216Z,14.08
2022-11-01T19:33:47.893Z,13.91
2022-11-01T19:36:20.687Z,13.58
2022-11-01T19:38:51.564Z,13.48
2022-11-01T19:41:36.176Z,13.06
2022-11-01T19:44:13.964Z,13.14
2022-11-01T19:46:40.362Z,12.98
2022-11-01T19:49:27.867Z,12.62
2022-11-01T19:52:46.000Z,12.83
2022-11-01T19:55:49.692Z,12.66
2022-11-01T19:58:19.015Z,12.56
2022-11-01T20:00:45.440Z,12.49
2022-11-01T20:03:26.193Z,12.03
2022-11-01T20:05:54.174Z,12.24
2022-11-01T20:08:23.337Z,11.94
2022-11-01T20:10:49.789Z,12.31
2022-11-01T20:13:16.221Z,12.31
2022-11-01T20:15:42.626Z,12.34
2022-11-01T20:18:09.413Z,12.32
2022-11-01T20:20:36.055Z,12.19
2022-11-01T20:23:24.571Z,12.05
2022-11-01T20:25:48.996Z,11.93
2022-11-01T20:28:15.394Z,12.23
2022-11-01T20:30:41.871Z,12.24
2022-11-01T20:33:08.288Z,11.80
2022-11-01T20:35:34.666Z,11.99
2022-11-01T20:38:01.057Z,12.18
2022-11-01T20:40:27.425Z,11.79
2022-11-01T20:42:54.003Z,12.10
2022-11-01T20:45:20.930Z,12.03
2022-11-01T20:47:47.377Z,11.80
2022-11-01T20:50:16.078Z,12.04
2022-11-01T20:52:43.188Z,11.67
2022-11-01T20:55:11.306Z,11.62
2022-11-01T20:57:38.540Z,11.85
2022-11-01T21:00:05.954Z,11.89
2022-11-01T21:02:32.873Z,11.95
2022-11-01T21:05:02.151Z,11.86
2022-11-01T21:07:30.131Z,11.40
2022-11-01T21:09:56.907Z,11.58
2022-11-01T21:12:43.229Z,11.45
2022-11-01T21:15:31.526Z,11.30
2022-11-01T21:18:06.802Z,11.20
2022-11-01T21:20:35.836Z,11.13
2022-11-01T21:23:21.485Z,10.73
2022-11-01T21:25:53.402Z,10.95
2022-11-01T21:28:44.961Z,10.99
2022-11-01T21:31:14.313Z,10.92
2022-11-01T21:33:43.620Z,10.91
2022-11-01T21:36:19.203Z,10.85
2022-11-01T21:38:55.982Z,10.79
2022-11-01T21:41:38.519Z,10.74
2022-11-01T21:44:23.897Z,10.75
2022-11-01T21:46:53.372Z,10.75
2022-11-01T21:49:24.515Z,10.22
2022-11-01T21:51:51.794Z,10.28
2022-11-01T21:54:18.231Z,10.18
2022-11-01T21:56:44.682Z,10.21
2022-11-01T21:59:11.115Z,10.61
2022-11-01T22:01:40.942Z,10.73
2022-11-01T22:04:07.475Z,10.76
2022-11-01T22:06:33.964Z,10.62
2022-11-01T22:09:00.384Z,10.68
2022-11-01T22:11:31.548Z,10.25
2022-11-01T22:13:58.978Z,10.77
2022-11-01T22:16:25.664Z,10.80
2022-11-01T22:18:52.115Z,10.69
2022-11-01T22:21:18.585Z,10.84
2022-11-01T22:23:45.081Z,10.89
2022-11-01T22:26:11.770Z,10.73
2022-11-01T22:28:38.424Z,10.90
2022-11-01T22:31:05.627Z,10.35
2022-11-01T22:33:33.737Z,11.00
2022-11-01T22:36:00.506Z,10.96
2022-11-01T22:38:36.569Z,10.58
2022-11-01T22:41:14.752Z,11.00
2022-11-01T22:43:43.707Z,11.02
2022-11-01T22:46:20.674Z,10.86
2022-11-01T22:48:48.599Z,10.57
2022-11-01T22:51:32.998Z,11.11
2022-11-01T22:53:59.455Z,11.18
2022-11-01T22:56:28.375Z,11.19
2022-11-01T22:58:55.229Z,11.09
2022-11-01T23:01:27.686Z,10.88
2022-11-01T23:03:57.149Z,10.90
2022-11-01T23:06:26.289Z,11.36
2022-11-01T23:08:55.201Z,11.40
2022-11-01T23:11:23.981Z,11.13
2022-11-01T23:13:50.381Z,11.37
2022-11-01T23:16:31.465Z,11.49
2022-11-01T23:19:00.281Z,11.47
2022-11-01T23:21:27.610Z,11.56
2022-11-01T23:23:54.542Z,11.49
2022-11-01T23:26:22.800Z,11.26
2022-11-01T23:28:54.199Z,11.34
2022-11-01T23:31:22.439Z,11.75
2022-11-01T23:33:49.890Z,11.57
2022-11-01T23:36:29.572Z,11.76
2022-11-01T23:38:55.941Z,11.85
2022-11-01T23:41:26.128Z,11.98
2022-11-01T23:43:56.660Z,11.96
2022-11-01T23:46:25.327Z,12.00
2022-11-01T23:49:01.758Z,12.17
2022-11-01T23:51:28.712Z,12.16
2022-11-01T23:53:56.094Z,12.08
2022-11-01T23:56:22.721Z,12.17
2022-11-01T23:58:55.716Z,12.04
